Time;durP1;ratioP1;P1;durP2;ratioP2;P2;SDS_P1;SDS_P2;PMS_P1;PMS_P2;Temp;Humidity;BMP_temperature;BMP_pressure;BME280_temperature;BME280_humidity;BME280_pressure;Samples;Min_cycle;Max_cycle;Signal;HPM_P1;HPM_P2
2022/02/10 00:21:58;;;;;;;26.25;9.57;;;;;;;;;;5093399;28;20027;-70
2022/02/10 00:35:21;;;;;;;18.92;8.23;;;;;;;;;;5090996;28;20696;-70
2022/02/10 00:38:04;;;;;;;18.02;8.43;;;;;;;;;;5075428;28;20031;-70
2022/02/10 00:40:33;;;;;;;19.80;8.43;;;;;;;;;;5090036;28;20063;-70
2022/02/10 00:43:00;;;;;;;28.08;8.27;;;;;;;;;;5093204;28;20036;-70
2022/02/10 00:45:28;;;;;;;19.27;8.05;;;;;;;;;;5093346;28;20028;-70
2022/02/10 00:47:57;;;;;;;16.48;7.97;;;;;;;;;;5093265;28;20028;-70
2022/02/10 00:50:24;;;;;;;22.10;8.18;;;;;;;;;;5075505;28;20020;-70
2022/02/10 00:52:51;;;;;;;17.63;8.13;;;;;;;;;;5093232;28;20529;-70
2022/02/10 00:55:23;;;;;;;27.08;8.40;;;;;;;;;;5092999;28;20016;-70
2022/02/10 00:57:48;;;;;;;23.15;7.70;;;;;;;;;;5092630;28;20039;-70
2022/02/10 01:29:42;;;;;;;20.83;7.10;;;;;;;;;;5080795;28;20070;-70
2022/02/10 01:32:08;;;;;;;12.85;6.88;;;;;;;;;;5091742;28;20020;-70
2022/02/10 01:34:39;;;;;;;19.05;7.40;;;;;;;;;;5092626;28;20031;-70
2022/02/10 01:37:04;;;;;;;;;;;;;;;;;;5092614;28;20376;-70
2022/02/10 01:39:34;;;;;;;23.98;9.35;;;;;;;;;;5092251;28;20276;-70
2022/02/10 01:58:39;;;;;;;20.70;9.52;;;;;;;;;;5092183;28;20065;-70
2022/02/10 02:03:50;;;;;;;11.68;6.45;;;;;;;;;;5087086;28;20027;-70
2022/02/10 02:06:41;;;;;;;18.55;7.15;;;;;;;;;;5091342;28;20020;-70
2022/02/10 02:09:09;;;;;;;18.13;7.43;;;;;;;;;;5091072;28;20491;-70
2022/02/10 02:11:39;;;;;;;21.98;8.50;;;;;;;;;;5091328;28;20473;-70
2022/02/10 02:14:04;;;;;;;23.63;7.87;;;;;;;;;;5091295;28;20012;-70
2022/02/10 02:16:29;;;;;;;19.17;8.73;;;;;;;;;;5090996;28;20410;-70
2022/02/10 02:18:54;;;;;;;18.58;8.18;;;;;;;;;;5091071;28;20533;-70
2022/02/10 02:21:20;;;;;;;21.80;7.95;;;;;;;;;;5090800;28;20063;-70
2022/02/10 02:23:45;;;;;;;53.70;9.07;;;;;;;;;;5091713;28;20016;-70
2022/02/10 02:26:15;;;;;;;15.93;8.02;;;;;;;;;;5091562;28;20024;-70
2022/02/10 02:28:44;;;;;;;26.35;8.38;;;;;;;;;;5090525;28;20008;-70
2022/02/10 02:31:15;;;;;;;22.08;8.02;;;;;;;;;;5090926;28;20036;-70
2022/02/10 02:39:14;;;;;;;23.65;9.20;;;;;;;;;;5092622;28;20541;-70
2022/02/10 03:06:28;;;;;;;22.67;9.20;;;;;;;;;;5090593;28;20461;-70
2022/02/10 03:08:58;;;;;;;19.95;8.80;;;;;;;;;;5090276;28;20020;-70
2022/02/10 03:11:24;;;;;;;19.80;9.15;;;;;;;;;;5089940;28;20107;-70
2022/02/10 03:14:01;;;;;;;16.63;7.80;;;;;;;;;;5090374;28;20103;-70
2022/02/10 04:07:39;;;;;;;23.08;9.00;;;;;;;;;;5073862;28;20066;-72
2022/02/10 04:10:31;;;;;;;16.80;8.18;;;;;;;;;;5073675;28;20044;-69
2022/02/10 04:20:50;;;;;;;17.45;8.50;;;;;;;;;;5074111;28;20027;-69
2022/02/10 04:28:49;;;;;;;13.73;7.20;;;;;;;;;;5073505;28;20495;-72
2022/02/10 04:32:02;;;;;;;14.80;6.75;;;;;;;;;;5065040;28;20169;-69
2022/02/10 04:58:39;;;;;;;20.42;7.60;;;;;;;;;;5067983;28;20158;-72
2022/02/10 05:19:19;;;;;;;18.33;7.72;;;;;;;;;;5070493;28;20035;-69
2022/02/10 05:22:11;;;;;;;20.38;7.97;;;;;;;;;;5065777;28;20028;-69
2022/02/10 05:31:15;;;;;;;24.60;8.13;;;;;;;;;;5069542;28;20123;-70
2022/02/10 05:35:31;;;;;;;18.02;8.27;;;;;;;;;;5069695;28;20020;-70
2022/02/10 05:38:08;;;;;;;16.05;8.18;;;;;;;;;;5069900;28;20423;-69
2022/02/10 05:43:34;;;;;;;20.38;9.02;;;;;;;;;;5067223;28;20530;-72
2022/02/10 05:46:09;;;;;;;21.00;9.13;;;;;;;;;;5068761;28;20032;-71
2022/02/10 05:56:22;;;;;;;22.42;8.20;;;;;;;;;;5070957;28;20070;-73
2022/02/10 08:57:42;;;;;;;22.50;9.55;;;;;;;;;;5083759;28;20346;-66
2022/02/10 09:03:20;;;;;;;28.35;9.10;;;;;;;;;;5081598;28;20046;-66
2022/02/10 09:05:53;;;;;;;16.67;8.80;;;;;;;;;;5080261;28;20036;-66
2022/02/10 09:19:18;;;;;;;14.80;7.78;;;;;;;;;;5076895;28;20278;-66
2022/02/10 10:02:06;;;;;;;29.65;12.02;;;;;;;;;;5080738;28;20121;-67
2022/02/10 10:04:43;;;;;;;25.63;12.27;;;;;;;;;;5079508;28;20046;-67
2022/02/10 10:10:10;;;;;;;27.45;10.25;;;;;;;;;;5076358;28;20558;-67
2022/02/10 10:13:20;;;;;;;24.95;9.52;;;;;;;;;;5073223;28;20028;-67
2022/02/10 10:15:46;;;;;;;22.85;9.50;;;;;;;;;;5081960;28;20028;-67
2022/02/10 10:18:40;;;;;;;31.17;11.40;;;;;;;;;;5083575;28;20023;-67
2022/02/10 10:24:07;;;;;;;32.97;11.90;;;;;;;;;;5072780;28;20024;-67
2022/02/10 10:49:37;;;;;;;28.50;13.38;;;;;;;;;;5080328;28;20100;-66
2022/02/10 10:52:10;;;;;;;27.35;11.77;;;;;;;;;;5097198;28;20087;-67
2022/02/10 10:54:44;;;;;;;32.65;14.95;;;;;;;;;;5085375;28;20113;-68
2022/02/10 10:59:53;;;;;;;35.20;15.30;;;;;;;;;;5075659;28;20081;-67
2022/02/10 11:22:16;;;;;;;31.13;14.13;;;;;;;;;;5084310;28;20027;-67
2022/02/10 11:38:46;;;;;;;35.17;15.18;;;;;;;;;;5077380;28;20069;-67
2022/02/10 11:47:01;;;;;;;42.13;14.45;;;;;;;;;;5082671;28;20024;-68
2022/02/10 14:17:06;;;;;;;21.10;10.93;;;;;;;;;;5109775;28;20111;-70
2022/02/10 14:22:38;;;;;;;18.88;10.30;;;;;;;;;;5102444;28;20149;-70
2022/02/10 14:27:33;;;;;;;19.25;9.93;;;;;;;;;;5098628;28;20051;-70
2022/02/10 14:29:59;;;;;;;17.73;10.25;;;;;;;;;;5095835;28;20422;-70
2022/02/10 14:32:29;;;;;;;22.35;10.73;;;;;;;;;;5096212;28;20028;-70
2022/02/10 14:35:00;;;;;;;15.55;8.70;;;;;;;;;;5092125;28;20020;-70
2022/02/10 14:37:51;;;;;;;16.27;8.70;;;;;;;;;;5092587;28;20023;-70
2022/02/10 14:41:36;;;;;;;19.17;8.30;;;;;;;;;;5088866;28;20020;-70
2022/02/10 15:53:43;;;;;;;21.40;10.47;;;;;;;;;;5090435;28;20013;-69
2022/02/10 15:56:42;;;;;;;18.00;9.82;;;;;;;;;;5087834;28;20813;-69
2022/02/10 16:13:48;;;;;;;17.30;7.88;;;;;;;;;;5090598;28;20437;-69
2022/02/10 16:18:23;;;;;;;13.75;5.55;;;;;;;;;;5102175;28;20473;-69
2022/02/10 16:20:59;;;;;;;10.30;4.90;;;;;;;;;;5073997;28;20015;-69
2022/02/10 16:23:26;;;;;;;13.77;5.22;;;;;;;;;;5089904;28;20413;-69
2022/02/10 16:26:08;;;;;;;14.43;5.63;;;;;;;;;;5089872;28;20099;-69
2022/02/10 16:28:35;;;;;;;9.90;5.70;;;;;;;;;;5073652;28;20016;-69
2022/02/10 16:31:00;;;;;;;9.65;5.10;;;;;;;;;;5089539;28;20447;-69
2022/02/10 16:33:26;;;;;;;6.35;4.07;;;;;;;;;;5089264;28;20043;-69
2022/02/10 16:35:51;;;;;;;11.77;5.37;;;;;;;;;;5088824;28;20387;-69
2022/02/10 16:38:16;;;;;;;9.07;4.47;;;;;;;;;;5089057;28;20308;-69
2022/02/10 16:40:41;;;;;;;11.10;5.85;;;;;;;;;;5089630;28;20020;-69
2022/02/10 16:43:07;;;;;;;9.57;5.07;;;;;;;;;;5071112;28;20101;-69
2022/02/10 16:45:33;;;;;;;15.13;6.10;;;;;;;;;;5089667;28;20395;-69
2022/02/10 16:47:58;;;;;;;13.02;4.88;;;;;;;;;;5089024;28;20048;-69
2022/02/10 16:50:23;;;;;;;14.25;6.65;;;;;;;;;;5089546;28;20020;-69
2022/02/10 16:52:58;;;;;;;11.25;5.43;;;;;;;;;;5094613;28;20102;-69
2022/02/10 16:55:37;;;;;;;9.38;5.07;;;;;;;;;;5100528;28;20039;-69
2022/02/10 17:03:39;;;;;;;11.07;4.80;;;;;;;;;;5093991;28;20042;-69
2022/02/10 17:14:05;;;;;;;11.32;5.20;;;;;;;;;;5080704;28;20026;-69
2022/02/10 17:27:19;;;;;;;18.55;7.75;;;;;;;;;;5083441;28;20031;-69
2022/02/10 17:32:25;;;;;;;20.92;9.40;;;;;;;;;;5096785;28;20047;-69
2022/02/10 17:41:19;;;;;;;27.10;11.95;;;;;;;;;;5100682;28;20015;-69
2022/02/10 17:53:42;;;;;;;19.45;8.60;;;;;;;;;;5096466;28;20018;-69
2022/02/10 17:56:08;;;;;;;18.43;9.33;;;;;;;;;;5095173;28;20091;-70
2022/02/10 17:58:33;;;;;;;26.00;10.00;;;;;;;;;;5090575;28;20323;-69
2022/02/10 18:00:59;;;;;;;23.92;10.23;;;;;;;;;;5074915;28;20475;-69
2022/02/10 18:03:26;;;;;;;27.92;12.07;;;;;;;;;;5091954;28;20456;-69
2022/02/10 18:08:22;;;;;;;24.05;10.40;;;;;;;;;;5089926;28;20118;-69
2022/02/10 18:13:41;;;;;;;40.58;11.05;;;;;;;;;;5090741;28;20035;-69
2022/02/10 18:16:13;;;;;;;26.88;11.23;;;;;;;;;;5089321;28;20027;-69
2022/02/10 18:18:46;;;;;;;20.30;9.07;;;;;;;;;;5089012;28;20102;-69
2022/02/10 18:26:17;;;;;;;24.52;9.75;;;;;;;;;;5091394;28;20020;-69
2022/02/10 18:29:01;;;;;;;24.52;9.95;;;;;;;;;;5089296;28;20020;-69
2022/02/10 19:06:56;;;;;;;24.33;11.98;;;;;;;;;;5055346;28;20028;-69
2022/02/10 19:09:28;;;;;;;30.08;12.93;;;;;;;;;;5088946;28;20016;-68
2022/02/10 19:12:03;;;;;;;30.60;13.50;;;;;;;;;;5069527;28;20024;-68
2022/02/10 19:14:29;;;;;;;35.38;14.45;;;;;;;;;;5090135;28;20012;-68
2022/02/10 19:16:54;;;;;;;32.63;14.05;;;;;;;;;;5088222;28;20039;-68
2022/02/10 19:19:19;;;;;;;37.05;15.10;;;;;;;;;;5088849;28;20056;-68
2022/02/10 19:21:45;;;;;;;37.20;14.32;;;;;;;;;;5087160;28;20496;-68
2022/02/10 19:24:10;;;;;;;39.42;15.05;;;;;;;;;;5093568;28;20088;-68
2022/02/10 19:26:35;;;;;;;34.70;13.38;;;;;;;;;;5098194;28;20078;-68
2022/02/10 19:29:00;;;;;;;35.13;13.98;;;;;;;;;;5094634;28;20039;-68
2022/02/10 19:31:27;;;;;;;35.60;12.60;;;;;;;;;;5097543;28;20480;-68
2022/02/10 19:33:53;;;;;;;28.27;11.60;;;;;;;;;;5092974;28;20285;-68
2022/02/10 19:36:18;;;;;;;25.27;12.35;;;;;;;;;;5090123;28;20069;-68
2022/02/10 19:38:44;;;;;;;39.40;12.05;;;;;;;;;;5091489;28;20016;-68
2022/02/10 19:41:09;;;;;;;24.85;8.18;;;;;;;;;;5108066;28;20039;-68
2022/02/10 19:43:34;;;;;;;27.90;9.70;;;;;;;;;;5106416;28;20140;-69
2022/02/10 19:46:00;;;;;;;19.10;6.50;;;;;;;;;;5092110;28;20362;-68
2022/02/10 19:48:26;;;;;;;25.20;6.88;;;;;;;;;;5086628;28;20020;-68
2022/02/10 19:50:52;;;;;;;16.40;5.90;;;;;;;;;;5097922;28;20024;-69
2022/02/10 19:53:18;;;;;;;8.90;4.20;;;;;;;;;;5098248;28;20072;-69
2022/02/10 19:55:47;;;;;;;5.45;1.95;;;;;;;;;;5090490;28;20062;-69
2022/02/10 19:58:19;;;;;;;3.63;1.45;;;;;;;;;;5093106;28;20016;-69
2022/02/10 20:00:46;;;;;;;4.75;1.45;;;;;;;;;;5093166;28;20105;-69
2022/02/10 20:03:22;;;;;;;7.32;1.50;;;;;;;;;;5092688;28;20011;-69
2022/02/10 20:05:50;;;;;;;6.40;1.48;;;;;;;;;;5093115;28;20016;-69
2022/02/10 20:08:16;;;;;;;4.03;1.20;;;;;;;;;;5089911;28;20046;-69
2022/02/10 20:13:16;;;;;;;3.53;1.10;;;;;;;;;;5084743;28;20119;-73
2022/02/10 20:15:41;;;;;;;32.28;1.38;;;;;;;;;;5083836;28;20518;-73
2022/02/10 20:18:06;;;;;;;5.93;1.10;;;;;;;;;;5085734;28;20023;-74
2022/02/10 20:20:32;;;;;;;2.75;0.80;;;;;;;;;;5089239;28;20069;-72
2022/02/10 20:22:57;;;;;;;3.08;0.82;;;;;;;;;;5107931;28;20413;-75
2022/02/10 20:25:22;;;;;;;2.72;0.70;;;;;;;;;;5090628;28;20015;-73
2022/02/10 20:27:48;;;;;;;3.08;1.05;;;;;;;;;;5110353;27;20132;-73
2022/02/10 20:30:13;;;;;;;11.60;1.48;;;;;;;;;;5107957;28;20463;-72
2022/02/10 20:32:38;;;;;;;3.15;0.93;;;;;;;;;;5114450;27;20027;-73
2022/02/10 20:35:05;;;;;;;2.13;1.00;;;;;;;;;;5106700;27;20034;-73
2022/02/10 20:37:30;;;;;;;3.00;0.80;;;;;;;;;;5114718;27;20459;-72
2022/02/10 20:39:56;;;;;;;4.97;1.23;;;;;;;;;;5118486;27;20086;-73
2022/02/10 20:42:22;;;;;;;2.85;0.98;;;;;;;;;;5112394;28;20016;-73
2022/02/10 20:44:52;;;;;;;4.47;1.10;;;;;;;;;;5114196;27;20053;-73
2022/02/10 20:47:20;;;;;;;4.75;1.90;;;;;;;;;;5090831;28;20020;-73
2022/02/10 20:49:46;;;;;;;3.63;1.75;;;;;;;;;;5121209;27;20019;-74
2022/02/10 20:52:11;;;;;;;18.88;6.15;;;;;;;;;;5109223;27;20365;-72
2022/02/10 20:54:38;;;;;;;12.43;2.08;;;;;;;;;;5108152;27;20051;-73
2022/02/10 20:57:03;;;;;;;5.60;1.58;;;;;;;;;;5090861;28;20031;-73
2022/02/10 21:02:12;;;;;;;3.28;1.58;;;;;;;;;;5112597;28;20062;-73
2022/02/10 21:04:42;;;;;;;7.60;2.78;;;;;;;;;;5112367;28;20027;-73
2022/02/10 21:07:17;;;;;;;7.28;2.00;;;;;;;;;;5112924;28;20065;-73
2022/02/10 21:09:59;;;;;;;6.70;2.10;;;;;;;;;;5093969;28;20032;-73
2022/02/10 21:12:29;;;;;;;7.95;1.25;;;;;;;;;;5107466;27;20015;-72
2022/02/10 21:14:54;;;;;;;4.45;1.50;;;;;;;;;;5111464;28;20016;-72
2022/02/10 21:17:26;;;;;;;7.18;1.55;;;;;;;;;;5093002;28;20030;-73
2022/02/10 21:19:57;;;;;;;5.10;1.17;;;;;;;;;;5091840;28;20016;-73
2022/02/10 21:22:22;;;;;;;5.35;1.63;;;;;;;;;;5111908;27;20085;-73
2022/02/10 21:24:56;;;;;;;6.28;1.70;;;;;;;;;;5117855;27;20020;-73
2022/02/10 21:29:55;;;;;;;3.50;1.58;;;;;;;;;;5111602;28;20512;-73
2022/02/10 21:32:20;;;;;;;4.55;1.38;;;;;;;;;;5107916;28;20032;-72
2022/02/10 21:40:43;;;;;;;1.77;0.82;;;;;;;;;;5099575;28;20469;-73
2022/02/10 21:47:21;;;;;;;4.88;1.15;;;;;;;;;;5112381;28;20121;-72
2022/02/10 22:10:03;;;;;;;7.75;1.13;;;;;;;;;;5105876;27;20268;-72
2022/02/10 22:20:08;;;;;;;6.50;1.55;;;;;;;;;;5112762;27;20077;-71
2022/02/10 22:22:37;;;;;;;5.75;1.58;;;;;;;;;;5107979;27;20019;-72
2022/02/10 22:25:07;;;;;;;5.22;1.27;;;;;;;;;;5103570;28;20212;-72
2022/02/10 22:27:36;;;;;;;2.53;1.13;;;;;;;;;;5099708;28;20392;-73
2022/02/10 22:30:09;;;;;;;7.15;1.70;;;;;;;;;;5100653;28;20024;-75
2022/02/10 22:32:51;;;;;;;4.38;1.33;;;;;;;;;;5091846;28;20027;-73
2022/02/10 22:35:16;;;;;;;3.92;0.95;;;;;;;;;;5096213;28;20023;-73
2022/02/10 22:37:42;;;;;;;4.95;2.08;;;;;;;;;;5109738;28;20569;-70
2022/02/10 22:40:23;;;;;;;8.38;1.40;;;;;;;;;;5109630;28;20023;-71
2022/02/10 22:42:48;;;;;;;7.30;1.10;;;;;;;;;;5090930;28;20020;-71
2022/02/10 22:45:14;;;;;;;6.03;1.25;;;;;;;;;;5092849;28;20034;-71
2022/02/10 22:47:39;;;;;;;4.45;1.50;;;;;;;;;;5105308;28;20027;-73
2022/02/10 22:50:05;;;;;;;8.52;1.70;;;;;;;;;;5080597;28;20072;-70
2022/02/10 22:52:30;;;;;;;5.57;1.20;;;;;;;;;;5093494;28;20043;-70
2022/02/10 22:54:55;;;;;;;11.60;1.55;;;;;;;;;;5108825;28;20053;-70
2022/02/10 22:57:20;;;;;;;8.13;1.70;;;;;;;;;;5095452;28;20612;-71
2022/02/10 22:59:45;;;;;;;12.63;1.95;;;;;;;;;;5111648;28;20322;-74
2022/02/10 23:02:10;;;;;;;9.38;2.10;;;;;;;;;;5112361;28;20124;-70
2022/02/10 23:04:36;;;;;;;13.02;4.22;;;;;;;;;;5111771;28;20019;-73
2022/02/10 23:07:07;;;;;;;7.03;3.17;;;;;;;;;;5111177;28;20023;-70
2022/02/10 23:09:41;;;;;;;8.90;3.65;;;;;;;;;;5094509;28;20541;-74
2022/02/10 23:12:07;;;;;;;12.27;3.35;;;;;;;;;;5111022;28;20464;-73
2022/02/10 23:14:32;;;;;;;6.13;2.70;;;;;;;;;;5113349;28;20023;-74
2022/02/10 23:16:59;;;;;;;5.68;2.05;;;;;;;;;;5112928;28;20559;-72
2022/02/10 23:19:24;;;;;;;10.15;1.58;;;;;;;;;;5111614;28;20015;-72
2022/02/10 23:21:50;;;;;;;9.00;1.35;;;;;;;;;;5111104;28;20194;-72
2022/02/10 23:24:15;;;;;;;5.25;1.38;;;;;;;;;;5112418;28;20387;-72
2022/02/10 23:26:40;;;;;;;3.25;1.75;;;;;;;;;;5111786;28;20051;-72
2022/02/10 23:29:05;;;;;;;6.10;2.00;;;;;;;;;;5112332;28;20420;-71
2022/02/10 23:31:30;;;;;;;7.80;1.88;;;;;;;;;;5107693;28;20625;-71
2022/02/10 23:33:59;;;;;;;10.05;2.15;;;;;;;;;;5099118;28;20582;-71
2022/02/10 23:39:06;;;;;;;6.00;1.75;;;;;;;;;;5111182;28;20046;-72
2022/02/10 23:44:02;;;;;;;5.53;2.00;;;;;;;;;;5112345;28;20031;-72
2022/02/10 23:46:28;;;;;;;4.22;2.08;;;;;;;;;;5113217;28;20042;-72
2022/02/10 23:48:55;;;;;;;5.28;2.30;;;;;;;;;;5111866;28;20094;-74
2022/02/10 23:51:25;;;;;;;4.28;2.03;;;;;;;;;;5094252;28;20024;-72
2022/02/10 23:53:52;;;;;;;5.40;2.38;;;;;;;;;;5112328;28;20020;-71
2022/02/10 23:56:21;;;;;;;6.65;2.92;;;;;;;;;;5095573;28;20427;-72
2022/02/10 23:59:03;;;;;;;7.75;3.10;;;;;;;;;;5113635;28;20012;-71
